Macachin, Argentina
Current Conditions -  °F | °C
As of 8:00 PM on Saturday 25 Oct 2014 (Local Time) from SAZN Reporting Station
Sand / Dust Storm Sand / Dust Storm  
Wind Chill: 79°   Ceiling: Unl
Heat Index: 80°   Visibility: 6mi
Dew Point: 59°   Wind: 0mph
Humidity: 51%   Direction: NA
Pressure: 29.74"   Gusts: NA
Location:  37.15°S, 63.65°W
Report Text: SAZN 252300Z 00000KT DU 9999 FEW050 FEW10026/15 Q1007
Loading
Personal Weather Stations






























Interactive Weather Map New forecast layout! Learn more

10-Day Weather Forecast

Advertisements
Track Severe Weather on mobile